sensor_id;sensor_type;location;lat;lon;timestamp;temperature;humidity
7388;DHT22;3735;50.136;11.062;2023-07-02T00:01:49;17.40;99.90
7388;DHT22;3735;50.136;11.062;2023-07-02T00:04:16;17.40;99.90
7388;DHT22;3735;50.136;11.062;2023-07-02T00:06:48;17.40;99.90
7388;DHT22;3735;50.136;11.062;2023-07-02T00:09:14;17.40;99.90
7388;DHT22;3735;50.136;11.062;2023-07-02T00:11:44;17.40;99.90
7388;DHT22;3735;50.136;11.062;2023-07-02T00:14:11;17.40;99.90
7388;DHT22;3735;50.136;11.062;2023-07-02T00:16:40;17.40;99.90
7388;DHT22;3735;50.136;11.062;2023-07-02T00:19:11;17.40;99.90
7388;DHT22;3735;50.136;11.062;2023-07-02T00:21:39;17.40;99.90
7388;DHT22;3735;50.136;11.062;2023-07-02T00:24:06;17.40;99.90
7388;DHT22;3735;50.136;11.062;2023-07-02T00:26:35;17.40;99.90
7388;DHT22;3735;50.136;11.062;2023-07-02T00:29:02;17.40;99.90
7388;DHT22;3735;50.136;11.062;2023-07-02T00:31:29;17.40;99.90
7388;DHT22;3735;50.136;11.062;2023-07-02T00:33:55;17.40;99.90
7388;DHT22;3735;50.136;11.062;2023-07-02T00:36:21;17.30;99.90
7388;DHT22;3735;50.136;11.062;2023-07-02T00:38:48;17.30;99.90
7388;DHT22;3735;50.136;11.062;2023-07-02T00:41:14;17.20;99.90
7388;DHT22;3735;50.136;11.062;2023-07-02T00:43:41;17.20;99.90
7388;DHT22;3735;50.136;11.062;2023-07-02T00:46:14;17.20;99.90
7388;DHT22;3735;50.136;11.062;2023-07-02T00:48:52;17.20;99.90
7388;DHT22;3735;50.136;11.062;2023-07-02T00:51:23;17.20;99.90
7388;DHT22;3735;50.136;11.062;2023-07-02T00:53:52;17.20;99.90
7388;DHT22;3735;50.136;11.062;2023-07-02T00:56:24;17.20;99.90
7388;DHT22;3735;50.136;11.062;2023-07-02T00:58:53;17.20;99.90
7388;DHT22;3735;50.136;11.062;2023-07-02T01:01:21;17.20;99.90
7388;DHT22;3735;50.136;11.062;2023-07-02T01:03:59;17.20;99.90
7388;DHT22;3735;50.136;11.062;2023-07-02T01:06:32;17.20;99.90
7388;DHT22;3735;50.136;11.062;2023-07-02T01:09:06;17.20;99.90
7388;DHT22;3735;50.136;11.062;2023-07-02T01:11:42;17.20;99.90
7388;DHT22;3735;50.136;11.062;2023-07-02T01:14:40;17.20;99.90
7388;DHT22;3735;50.136;11.062;2023-07-02T01:17:06;17.20;99.90
7388;DHT22;3735;50.136;11.062;2023-07-02T01:19:50;17.20;99.90
7388;DHT22;3735;50.136;11.062;2023-07-02T01:22:18;17.20;99.90
7388;DHT22;3735;50.136;11.062;2023-07-02T01:24:46;17.10;99.90
7388;DHT22;3735;50.136;11.062;2023-07-02T01:27:14;17.10;99.90
7388;DHT22;3735;50.136;11.062;2023-07-02T01:29:41;17.10;99.90
7388;DHT22;3735;50.136;11.062;2023-07-02T01:32:10;17.00;99.90
7388;DHT22;3735;50.136;11.062;2023-07-02T01:34:36;17.00;99.90
7388;DHT22;3735;50.136;11.062;2023-07-02T01:37:03;16.90;99.90
7388;DHT22;3735;50.136;11.062;2023-07-02T01:39:30;16.90;99.90
7388;DHT22;3735;50.136;11.062;2023-07-02T01:42:06;16.90;99.90
7388;DHT22;3735;50.136;11.062;2023-07-02T01:44:34;16.90;99.90
7388;DHT22;3735;50.136;11.062;2023-07-02T01:47:00;16.90;99.90
7388;DHT22;3735;50.136;11.062;2023-07-02T01:49:25;16.90;99.90
7388;DHT22;3735;50.136;11.062;2023-07-02T01:51:52;16.80;99.90
7388;DHT22;3735;50.136;11.062;2023-07-02T01:54:20;16.80;99.90
7388;DHT22;3735;50.136;11.062;2023-07-02T01:56:46;16.80;99.90
7388;DHT22;3735;50.136;11.062;2023-07-02T01:59:12;16.80;99.90
7388;DHT22;3735;50.136;11.062;2023-07-02T02:01:38;16.90;99.90
7388;DHT22;3735;50.136;11.062;2023-07-02T02:04:09;16.90;99.90
7388;DHT22;3735;50.136;11.062;2023-07-02T02:06:39;16.90;99.90
7388;DHT22;3735;50.136;11.062;2023-07-02T02:09:06;16.80;99.90
7388;DHT22;3735;50.136;11.062;2023-07-02T02:11:34;16.80;99.90
7388;DHT22;3735;50.136;11.062;2023-07-02T02:14:02;16.80;99.90
7388;DHT22;3735;50.136;11.062;2023-07-02T02:16:28;16.80;99.90
7388;DHT22;3735;50.136;11.062;2023-07-02T02:18:54;16.80;99.90
7388;DHT22;3735;50.136;11.062;2023-07-02T02:21:20;16.80;99.90
7388;DHT22;3735;50.136;11.062;2023-07-02T02:23:48;16.80;99.90
7388;DHT22;3735;50.136;11.062;2023-07-02T02:26:14;16.90;99.90
7388;DHT22;3735;50.136;11.062;2023-07-02T02:28:41;17.00;99.90
7388;DHT22;3735;50.136;11.062;2023-07-02T02:31:07;17.00;99.90
7388;DHT22;3735;50.136;11.062;2023-07-02T02:33:34;17.00;99.90
7388;DHT22;3735;50.136;11.062;2023-07-02T02:36:04;17.00;99.90
7388;DHT22;3735;50.136;11.062;2023-07-02T02:38:30;17.00;99.90
7388;DHT22;3735;50.136;11.062;2023-07-02T02:40:55;17.00;99.90
7388;DHT22;3735;50.136;11.062;2023-07-02T02:43:21;16.90;99.90
7388;DHT22;3735;50.136;11.062;2023-07-02T02:45:48;17.00;99.90
7388;DHT22;3735;50.136;11.062;2023-07-02T02:48:13;17.00;99.90
7388;DHT22;3735;50.136;11.062;2023-07-02T02:50:39;16.90;99.90
7388;DHT22;3735;50.136;11.062;2023-07-02T02:53:07;16.90;99.90
7388;DHT22;3735;50.136;11.062;2023-07-02T02:55:33;16.80;99.90
7388;DHT22;3735;50.136;11.062;2023-07-02T02:57:59;16.70;99.90
7388;DHT22;3735;50.136;11.062;2023-07-02T03:00:25;16.60;99.90
7388;DHT22;3735;50.136;11.062;2023-07-02T03:02:51;16.50;99.90
7388;DHT22;3735;50.136;11.062;2023-07-02T03:05:16;16.50;99.90
7388;DHT22;3735;50.136;11.062;2023-07-02T03:07:42;16.50;99.90
7388;DHT22;3735;50.136;11.062;2023-07-02T03:10:08;16.50;99.90
7388;DHT22;3735;50.136;11.062;2023-07-02T03:12:34;16.40;99.90
7388;DHT22;3735;50.136;11.062;2023-07-02T03:15:00;16.40;99.90
7388;DHT22;3735;50.136;11.062;2023-07-02T03:17:26;16.40;99.90
7388;DHT22;3735;50.136;11.062;2023-07-02T03:19:51;16.30;99.90
7388;DHT22;3735;50.136;11.062;2023-07-02T03:22:17;16.30;99.90
7388;DHT22;3735;50.136;11.062;2023-07-02T03:24:43;16.30;99.90
7388;DHT22;3735;50.136;11.062;2023-07-02T03:27:09;16.20;99.90
7388;DHT22;3735;50.136;11.062;2023-07-02T03:29:35;16.20;99.90
7388;DHT22;3735;50.136;11.062;2023-07-02T03:32:03;16.20;99.90
7388;DHT22;3735;50.136;11.062;2023-07-02T03:34:30;16.10;99.90
7388;DHT22;3735;50.136;11.062;2023-07-02T03:36:56;16.10;99.90
7388;DHT22;3735;50.136;11.062;2023-07-02T03:39:22;16.10;99.90
7388;DHT22;3735;50.136;11.062;2023-07-02T03:41:48;16.10;99.90
7388;DHT22;3735;50.136;11.062;2023-07-02T03:44:13;16.20;99.90
7388;DHT22;3735;50.136;11.062;2023-07-02T03:46:39;16.20;99.90
7388;DHT22;3735;50.136;11.062;2023-07-02T03:49:05;16.20;99.90
7388;DHT22;3735;50.136;11.062;2023-07-02T03:51:31;16.20;99.90
7388;DHT22;3735;50.136;11.062;2023-07-02T03:54:00;16.30;99.90
7388;DHT22;3735;50.136;11.062;2023-07-02T03:56:26;16.30;99.90
7388;DHT22;3735;50.136;11.062;2023-07-02T03:58:52;16.20;99.90
7388;DHT22;3735;50.136;11.062;2023-07-02T04:01:18;16.20;99.90
7388;DHT22;3735;50.136;11.062;2023-07-02T04:03:51;16.10;99.90
7388;DHT22;3735;50.136;11.062;2023-07-02T04:06:18;16.00;99.90
7388;DHT22;3735;50.136;11.062;2023-07-02T04:08:44;15.90;99.90
7388;DHT22;3735;50.136;11.062;2023-07-02T04:11:11;15.80;99.90
7388;DHT22;3735;50.136;11.062;2023-07-02T04:13:38;15.70;99.90
7388;DHT22;3735;50.136;11.062;2023-07-02T04:16:04;15.60;99.90
7388;DHT22;3735;50.136;11.062;2023-07-02T04:18:30;15.60;99.90
7388;DHT22;3735;50.136;11.062;2023-07-02T04:20:56;15.60;99.90
7388;DHT22;3735;50.136;11.062;2023-07-02T04:23:24;15.60;99.90
7388;DHT22;3735;50.136;11.062;2023-07-02T04:25:50;15.70;99.90
7388;DHT22;3735;50.136;11.062;2023-07-02T04:28:16;15.70;99.90
7388;DHT22;3735;50.136;11.062;2023-07-02T04:30:42;15.70;99.90
7388;DHT22;3735;50.136;11.062;2023-07-02T04:33:08;15.60;99.90
7388;DHT22;3735;50.136;11.062;2023-07-02T04:35:34;15.60;99.90
7388;DHT22;3735;50.136;11.062;2023-07-02T04:38:01;15.60;99.90
7388;DHT22;3735;50.136;11.062;2023-07-02T04:40:27;15.80;99.90
7388;DHT22;3735;50.136;11.062;2023-07-02T04:42:53;16.00;99.90
7388;DHT22;3735;50.136;11.062;2023-07-02T04:45:23;16.40;99.90
7388;DHT22;3735;50.136;11.062;2023-07-02T04:47:50;17.00;99.90
7388;DHT22;3735;50.136;11.062;2023-07-02T04:50:17;17.30;99.90
7388;DHT22;3735;50.136;11.062;2023-07-02T04:52:44;17.50;99.90
7388;DHT22;3735;50.136;11.062;2023-07-02T04:55:10;17.40;99.90
7388;DHT22;3735;50.136;11.062;2023-07-02T04:57:37;17.30;99.90
7388;DHT22;3735;50.136;11.062;2023-07-02T05:00:03;17.30;99.90
7388;DHT22;3735;50.136;11.062;2023-07-02T05:02:31;17.20;99.90
7388;DHT22;3735;50.136;11.062;2023-07-02T05:04:57;17.20;99.90
7388;DHT22;3735;50.136;11.062;2023-07-02T05:07:23;17.10;99.90
7388;DHT22;3735;50.136;11.062;2023-07-02T05:09:48;17.10;99.90
7388;DHT22;3735;50.136;11.062;2023-07-02T05:12:17;17.00;99.90
7388;DHT22;3735;50.136;11.062;2023-07-02T05:14:43;17.10;99.90
7388;DHT22;3735;50.136;11.062;2023-07-02T05:17:09;17.20;99.90
7388;DHT22;3735;50.136;11.062;2023-07-02T05:19:34;17.30;99.90
7388;DHT22;3735;50.136;11.062;2023-07-02T05:22:00;17.30;99.90
7388;DHT22;3735;50.136;11.062;2023-07-02T05:24:26;17.30;99.90
7388;DHT22;3735;50.136;11.062;2023-07-02T05:26:52;17.20;99.90
7388;DHT22;3735;50.136;11.062;2023-07-02T05:29:18;17.10;99.90
7388;DHT22;3735;50.136;11.062;2023-07-02T05:31:44;17.20;99.90
7388;DHT22;3735;50.136;11.062;2023-07-02T05:34:10;17.40;99.90
7388;DHT22;3735;50.136;11.062;2023-07-02T05:36:35;17.50;99.90
7388;DHT22;3735;50.136;11.062;2023-07-02T05:39:01;17.60;99.90
7388;DHT22;3735;50.136;11.062;2023-07-02T05:41:27;17.80;99.90
7388;DHT22;3735;50.136;11.062;2023-07-02T05:43:57;18.00;99.90
7388;DHT22;3735;50.136;11.062;2023-07-02T05:46:23;18.00;99.90
7388;DHT22;3735;50.136;11.062;2023-07-02T05:48:49;18.10;99.90
7388;DHT22;3735;50.136;11.062;2023-07-02T05:51:23;18.20;99.90
7388;DHT22;3735;50.136;11.062;2023-07-02T05:53:50;18.20;99.90
7388;DHT22;3735;50.136;11.062;2023-07-02T05:56:17;18.00;99.90
7388;DHT22;3735;50.136;11.062;2023-07-02T05:58:43;18.00;99.90
7388;DHT22;3735;50.136;11.062;2023-07-02T06:01:09;17.80;99.90
7388;DHT22;3735;50.136;11.062;2023-07-02T06:03:34;17.80;99.90
7388;DHT22;3735;50.136;11.062;2023-07-02T06:06:00;17.90;99.90
7388;DHT22;3735;50.136;11.062;2023-07-02T06:08:26;18.10;99.90
7388;DHT22;3735;50.136;11.062;2023-07-02T06:10:52;18.50;99.90
7388;DHT22;3735;50.136;11.062;2023-07-02T06:13:18;19.20;99.90
7388;DHT22;3735;50.136;11.062;2023-07-02T06:15:44;19.60;99.90
7388;DHT22;3735;50.136;11.062;2023-07-02T06:18:11;19.80;99.90
7388;DHT22;3735;50.136;11.062;2023-07-02T06:20:37;19.50;99.90
7388;DHT22;3735;50.136;11.062;2023-07-02T06:23:03;19.40;99.90
7388;DHT22;3735;50.136;11.062;2023-07-02T06:25:29;20.30;99.90
7388;DHT22;3735;50.136;11.062;2023-07-02T06:27:55;20.60;99.90
7388;DHT22;3735;50.136;11.062;2023-07-02T06:30:24;20.40;99.90
7388;DHT22;3735;50.136;11.062;2023-07-02T06:32:50;20.00;99.90
7388;DHT22;3735;50.136;11.062;2023-07-02T06:35:16;19.80;99.90
7388;DHT22;3735;50.136;11.062;2023-07-02T06:37:42;19.70;99.90
7388;DHT22;3735;50.136;11.062;2023-07-02T06:40:08;19.60;99.90
7388;DHT22;3735;50.136;11.062;2023-07-02T06:42:35;19.50;99.90
7388;DHT22;3735;50.136;11.062;2023-07-02T06:45:04;19.30;99.90
7388;DHT22;3735;50.136;11.062;2023-07-02T06:47:31;19.10;99.90
7388;DHT22;3735;50.136;11.062;2023-07-02T06:49:57;18.80;99.90
7388;DHT22;3735;50.136;11.062;2023-07-02T06:52:23;18.40;99.90
7388;DHT22;3735;50.136;11.062;2023-07-02T06:54:49;18.20;99.90
7388;DHT22;3735;50.136;11.062;2023-07-02T06:57:15;18.10;99.90
7388;DHT22;3735;50.136;11.062;2023-07-02T06:59:41;18.20;99.90
7388;DHT22;3735;50.136;11.062;2023-07-02T07:02:07;18.30;99.90
7388;DHT22;3735;50.136;11.062;2023-07-02T07:04:32;18.60;99.90
7388;DHT22;3735;50.136;11.062;2023-07-02T07:07:02;19.50;99.90
7388;DHT22;3735;50.136;11.062;2023-07-02T07:09:32;20.50;99.90
7388;DHT22;3735;50.136;11.062;2023-07-02T07:11:57;21.50;99.90
7388;DHT22;3735;50.136;11.062;2023-07-02T07:14:23;22.10;99.90
7388;DHT22;3735;50.136;11.062;2023-07-02T07:16:49;21.70;99.90
7388;DHT22;3735;50.136;11.062;2023-07-02T07:19:16;22.20;99.90
7388;DHT22;3735;50.136;11.062;2023-07-02T07:21:42;23.20;99.90
7388;DHT22;3735;50.136;11.062;2023-07-02T07:24:09;24.10;99.90
7388;DHT22;3735;50.136;11.062;2023-07-02T07:26:34;24.70;99.90
7388;DHT22;3735;50.136;11.062;2023-07-02T07:29:00;25.20;99.90
7388;DHT22;3735;50.136;11.062;2023-07-02T07:31:26;25.90;99.90
7388;DHT22;3735;50.136;11.062;2023-07-02T07:33:52;26.50;99.90
7388;DHT22;3735;50.136;11.062;2023-07-02T07:36:17;26.60;99.90
7388;DHT22;3735;50.136;11.062;2023-07-02T07:38:43;26.90;99.90
7388;DHT22;3735;50.136;11.062;2023-07-02T07:41:09;26.70;99.90
7388;DHT22;3735;50.136;11.062;2023-07-02T07:43:35;27.10;99.90
7388;DHT22;3735;50.136;11.062;2023-07-02T07:46:01;27.80;99.90
7388;DHT22;3735;50.136;11.062;2023-07-02T07:48:27;26.90;99.90
7388;DHT22;3735;50.136;11.062;2023-07-02T07:50:52;25.70;99.90
7388;DHT22;3735;50.136;11.062;2023-07-02T07:53:18;24.50;99.90
7388;DHT22;3735;50.136;11.062;2023-07-02T07:55:44;24.30;99.90
7388;DHT22;3735;50.136;11.062;2023-07-02T07:58:10;25.30;99.90
7388;DHT22;3735;50.136;11.062;2023-07-02T08:00:35;26.50;99.90
7388;DHT22;3735;50.136;11.062;2023-07-02T08:03:02;27.50;99.90
7388;DHT22;3735;50.136;11.062;2023-07-02T08:05:29;27.80;99.90
7388;DHT22;3735;50.136;11.062;2023-07-02T08:07:56;26.20;99.90
7388;DHT22;3735;50.136;11.062;2023-07-02T08:10:22;24.70;99.90
7388;DHT22;3735;50.136;11.062;2023-07-02T08:12:49;24.50;99.90
7388;DHT22;3735;50.136;11.062;2023-07-02T08:15:17;24.90;99.90
7388;DHT22;3735;50.136;11.062;2023-07-02T08:17:43;25.80;99.90
7388;DHT22;3735;50.136;11.062;2023-07-02T08:20:10;27.00;99.90
7388;DHT22;3735;50.136;11.062;2023-07-02T08:22:37;28.30;99.90
7388;DHT22;3735;50.136;11.062;2023-07-02T08:25:05;27.90;99.90
7388;DHT22;3735;50.136;11.062;2023-07-02T08:27:31;27.10;99.90
7388;DHT22;3735;50.136;11.062;2023-07-02T08:29:57;25.80;99.90
7388;DHT22;3735;50.136;11.062;2023-07-02T08:32:23;25.30;99.90
7388;DHT22;3735;50.136;11.062;2023-07-02T08:34:48;25.30;99.90
7388;DHT22;3735;50.136;11.062;2023-07-02T08:37:16;26.30;99.90
7388;DHT22;3735;50.136;11.062;2023-07-02T08:39:42;27.00;99.90
7388;DHT22;3735;50.136;11.062;2023-07-02T08:42:08;27.60;99.90
7388;DHT22;3735;50.136;11.062;2023-07-02T08:44:34;28.50;99.90
7388;DHT22;3735;50.136;11.062;2023-07-02T08:47:04;29.60;99.90
7388;DHT22;3735;50.136;11.062;2023-07-02T08:49:31;30.30;99.90
7388;DHT22;3735;50.136;11.062;2023-07-02T08:51:57;29.90;99.90
7388;DHT22;3735;50.136;11.062;2023-07-02T08:54:23;28.90;99.90
7388;DHT22;3735;50.136;11.062;2023-07-02T08:56:49;27.80;99.90
7388;DHT22;3735;50.136;11.062;2023-07-02T08:59:15;26.50;99.90
7388;DHT22;3735;50.136;11.062;2023-07-02T09:01:52;25.50;99.90
7388;DHT22;3735;50.136;11.062;2023-07-02T09:04:20;24.90;99.90
7388;DHT22;3735;50.136;11.062;2023-07-02T09:07:02;25.30;99.90
7388;DHT22;3735;50.136;11.062;2023-07-02T09:09:30;26.00;99.90
7388;DHT22;3735;50.136;11.062;2023-07-02T09:11:55;26.80;99.90
7388;DHT22;3735;50.136;11.062;2023-07-02T09:14:29;26.30;99.90
7388;DHT22;3735;50.136;11.062;2023-07-02T09:17:06;25.60;99.90
7388;DHT22;3735;50.136;11.062;2023-07-02T09:19:36;24.80;99.90
7388;DHT22;3735;50.136;11.062;2023-07-02T09:22:15;24.70;99.90
7388;DHT22;3735;50.136;11.062;2023-07-02T09:24:41;26.90;99.90
7388;DHT22;3735;50.136;11.062;2023-07-02T09:27:07;29.40;99.90
7388;DHT22;3735;50.136;11.062;2023-07-02T09:29:34;30.50;99.90
7388;DHT22;3735;50.136;11.062;2023-07-02T09:32:02;29.70;99.90
7388;DHT22;3735;50.136;11.062;2023-07-02T09:34:31;28.40;99.90
7388;DHT22;3735;50.136;11.062;2023-07-02T09:36:58;27.10;99.90
7388;DHT22;3735;50.136;11.062;2023-07-02T09:39:30;25.90;99.90
7388;DHT22;3735;50.136;11.062;2023-07-02T09:41:59;25.20;99.90
7388;DHT22;3735;50.136;11.062;2023-07-02T09:44:30;25.40;99.90
7388;DHT22;3735;50.136;11.062;2023-07-02T09:47:07;26.10;99.90
7388;DHT22;3735;50.136;11.062;2023-07-02T09:49:40;26.60;99.90
7388;DHT22;3735;50.136;11.062;2023-07-02T09:52:10;27.30;99.90
7388;DHT22;3735;50.136;11.062;2023-07-02T09:54:37;29.00;99.90
7388;DHT22;3735;50.136;11.062;2023-07-02T09:57:05;29.90;99.90
7388;DHT22;3735;50.136;11.062;2023-07-02T09:59:34;29.90;99.90
7388;DHT22;3735;50.136;11.062;2023-07-02T10:02:00;29.60;99.90
7388;DHT22;3735;50.136;11.062;2023-07-02T10:04:26;29.00;99.90
7388;DHT22;3735;50.136;11.062;2023-07-02T10:06:53;28.90;99.90
7388;DHT22;3735;50.136;11.062;2023-07-02T10:09:25;28.40;99.90
7388;DHT22;3735;50.136;11.062;2023-07-02T10:12:01;27.80;99.90
7388;DHT22;3735;50.136;11.062;2023-07-02T10:14:26;27.00;99.90
7388;DHT22;3735;50.136;11.062;2023-07-02T10:16:53;25.90;99.90
7388;DHT22;3735;50.136;11.062;2023-07-02T10:19:20;25.10;99.90
7388;DHT22;3735;50.136;11.062;2023-07-02T10:21:46;24.60;99.90
7388;DHT22;3735;50.136;11.062;2023-07-02T10:24:25;24.10;99.90
7388;DHT22;3735;50.136;11.062;2023-07-02T10:26:53;23.80;99.90
7388;DHT22;3735;50.136;11.062;2023-07-02T10:29:23;23.60;99.90
7388;DHT22;3735;50.136;11.062;2023-07-02T10:31:54;23.60;99.90
7388;DHT22;3735;50.136;11.062;2023-07-02T10:34:35;23.50;99.90
7388;DHT22;3735;50.136;11.062;2023-07-02T10:37:02;23.60;99.90
7388;DHT22;3735;50.136;11.062;2023-07-02T10:39:29;24.20;99.90
7388;DHT22;3735;50.136;11.062;2023-07-02T10:42:09;25.90;99.90
7388;DHT22;3735;50.136;11.062;2023-07-02T10:44:47;26.60;99.90
7388;DHT22;3735;50.136;11.062;2023-07-02T10:47:15;26.40;99.90
7388;DHT22;3735;50.136;11.062;2023-07-02T10:49:42;26.40;99.90
7388;DHT22;3735;50.136;11.062;2023-07-02T10:52:07;27.30;99.90
7388;DHT22;3735;50.136;11.062;2023-07-02T10:54:40;29.10;99.90
7388;DHT22;3735;50.136;11.062;2023-07-02T10:57:08;29.20;99.90
7388;DHT22;3735;50.136;11.062;2023-07-02T10:59:35;27.90;99.90
7388;DHT22;3735;50.136;11.062;2023-07-02T11:02:01;26.70;99.90
7388;DHT22;3735;50.136;11.062;2023-07-02T11:04:30;26.20;99.90
7388;DHT22;3735;50.136;11.062;2023-07-02T11:06:57;26.00;99.90
7388;DHT22;3735;50.136;11.062;2023-07-02T11:09:23;26.10;99.90
7388;DHT22;3735;50.136;11.062;2023-07-02T11:12:00;26.60;99.90
7388;DHT22;3735;50.136;11.062;2023-07-02T11:14:34;27.00;99.90
7388;DHT22;3735;50.136;11.062;2023-07-02T11:17:05;27.40;99.90
7388;DHT22;3735;50.136;11.062;2023-07-02T11:19:35;27.30;99.90
7388;DHT22;3735;50.136;11.062;2023-07-02T11:22:01;26.90;99.90
7388;DHT22;3735;50.136;11.062;2023-07-02T11:26:54;26.40;99.90
7388;DHT22;3735;50.136;11.062;2023-07-02T11:29:22;26.00;99.90
7388;DHT22;3735;50.136;11.062;2023-07-02T11:31:48;25.50;99.90
7388;DHT22;3735;50.136;11.062;2023-07-02T11:34:23;25.10;99.90
7388;DHT22;3735;50.136;11.062;2023-07-02T11:36:50;24.90;99.90
7388;DHT22;3735;50.136;11.062;2023-07-02T11:39:16;25.20;99.90
7388;DHT22;3735;50.136;11.062;2023-07-02T11:41:43;26.50;99.90
7388;DHT22;3735;50.136;11.062;2023-07-02T11:44:10;27.70;99.90
7388;DHT22;3735;50.136;11.062;2023-07-02T11:46:37;27.80;99.90
7388;DHT22;3735;50.136;11.062;2023-07-02T11:49:04;26.90;99.90
7388;DHT22;3735;50.136;11.062;2023-07-02T11:51:33;25.80;99.90
7388;DHT22;3735;50.136;11.062;2023-07-02T11:54:00;25.50;99.90
7388;DHT22;3735;50.136;11.062;2023-07-02T11:56:26;25.60;99.90
7388;DHT22;3735;50.136;11.062;2023-07-02T11:58:52;25.70;99.90
7388;DHT22;3735;50.136;11.062;2023-07-02T12:01:17;26.10;99.90
7388;DHT22;3735;50.136;11.062;2023-07-02T12:03:44;27.00;99.90
7388;DHT22;3735;50.136;11.062;2023-07-02T12:06:10;26.90;99.90
7388;DHT22;3735;50.136;11.062;2023-07-02T12:08:36;26.80;99.90
7388;DHT22;3735;50.136;11.062;2023-07-02T12:11:02;26.80;99.90
7388;DHT22;3735;50.136;11.062;2023-07-02T12:13:28;26.80;99.90
7388;DHT22;3735;50.136;11.062;2023-07-02T12:15:53;26.20;99.90
7388;DHT22;3735;50.136;11.062;2023-07-02T12:18:19;26.10;99.90
7388;DHT22;3735;50.136;11.062;2023-07-02T12:20:45;28.00;99.90
7388;DHT22;3735;50.136;11.062;2023-07-02T12:23:11;28.30;99.90
7388;DHT22;3735;50.136;11.062;2023-07-02T12:25:37;27.80;99.90
7388;DHT22;3735;50.136;11.062;2023-07-02T12:28:04;27.30;99.90
7388;DHT22;3735;50.136;11.062;2023-07-02T12:30:30;26.80;99.90
7388;DHT22;3735;50.136;11.062;2023-07-02T12:32:57;26.40;99.90
7388;DHT22;3735;50.136;11.062;2023-07-02T12:35:25;26.50;99.90
7388;DHT22;3735;50.136;11.062;2023-07-02T12:37:52;27.10;99.90
7388;DHT22;3735;50.136;11.062;2023-07-02T12:40:20;27.00;99.90
7388;DHT22;3735;50.136;11.062;2023-07-02T12:42:47;26.70;99.90
7388;DHT22;3735;50.136;11.062;2023-07-02T12:45:14;26.50;99.90
7388;DHT22;3735;50.136;11.062;2023-07-02T12:47:41;26.30;99.90
7388;DHT22;3735;50.136;11.062;2023-07-02T12:50:09;27.20;99.90
7388;DHT22;3735;50.136;11.062;2023-07-02T12:52:35;27.60;99.90
7388;DHT22;3735;50.136;11.062;2023-07-02T12:55:01;27.70;99.90
7388;DHT22;3735;50.136;11.062;2023-07-02T12:57:27;28.70;99.90
7388;DHT22;3735;50.136;11.062;2023-07-02T12:59:54;30.60;99.90
7388;DHT22;3735;50.136;11.062;2023-07-02T13:02:24;31.60;99.90
7388;DHT22;3735;50.136;11.062;2023-07-02T13:04:50;31.30;99.90
7388;DHT22;3735;50.136;11.062;2023-07-02T13:07:16;31.40;99.90
7388;DHT22;3735;50.136;11.062;2023-07-02T13:09:42;30.90;99.90
7388;DHT22;3735;50.136;11.062;2023-07-02T13:12:09;29.90;99.90
7388;DHT22;3735;50.136;11.062;2023-07-02T13:14:36;29.20;99.90
7388;DHT22;3735;50.136;11.062;2023-07-02T13:17:02;28.60;99.90
7388;DHT22;3735;50.136;11.062;2023-07-02T13:19:30;28.60;99.90
7388;DHT22;3735;50.136;11.062;2023-07-02T13:21:57;28.30;99.90
7388;DHT22;3735;50.136;11.062;2023-07-02T13:24:23;27.80;99.90
7388;DHT22;3735;50.136;11.062;2023-07-02T13:26:49;27.60;99.90
7388;DHT22;3735;50.136;11.062;2023-07-02T13:29:15;27.30;99.90
7388;DHT22;3735;50.136;11.062;2023-07-02T13:31:42;26.60;99.90
7388;DHT22;3735;50.136;11.062;2023-07-02T13:34:07;26.20;99.90
7388;DHT22;3735;50.136;11.062;2023-07-02T13:36:33;26.00;99.90
7388;DHT22;3735;50.136;11.062;2023-07-02T13:38:59;25.80;99.90
7388;DHT22;3735;50.136;11.062;2023-07-02T13:41:26;25.60;99.90
7388;DHT22;3735;50.136;11.062;2023-07-02T13:43:52;25.60;99.90
7388;DHT22;3735;50.136;11.062;2023-07-02T13:46:17;25.90;99.90
7388;DHT22;3735;50.136;11.062;2023-07-02T13:48:43;26.90;99.90
7388;DHT22;3735;50.136;11.062;2023-07-02T13:51:09;27.30;99.90
7388;DHT22;3735;50.136;11.062;2023-07-02T13:53:35;27.30;99.90
7388;DHT22;3735;50.136;11.062;2023-07-02T13:56:01;27.70;99.90
7388;DHT22;3735;50.136;11.062;2023-07-02T14:01:10;27.60;99.90
7388;DHT22;3735;50.136;11.062;2023-07-02T14:03:36;27.90;99.90
7388;DHT22;3735;50.136;11.062;2023-07-02T14:06:02;27.90;99.90
7388;DHT22;3735;50.136;11.062;2023-07-02T14:08:27;28.00;99.90
7388;DHT22;3735;50.136;11.062;2023-07-02T14:10:53;27.60;99.90
7388;DHT22;3735;50.136;11.062;2023-07-02T14:13:19;28.10;99.90
7388;DHT22;3735;50.136;11.062;2023-07-02T14:15:44;29.30;99.90
7388;DHT22;3735;50.136;11.062;2023-07-02T14:18:10;29.20;99.90
7388;DHT22;3735;50.136;11.062;2023-07-02T14:20:36;29.00;99.90
7388;DHT22;3735;50.136;11.062;2023-07-02T14:23:01;29.30;99.90
7388;DHT22;3735;50.136;11.062;2023-07-02T14:25:27;28.90;99.90
7388;DHT22;3735;50.136;11.062;2023-07-02T14:27:53;28.00;99.90
7388;DHT22;3735;50.136;11.062;2023-07-02T14:30:19;27.10;99.90
7388;DHT22;3735;50.136;11.062;2023-07-02T14:32:44;26.70;99.90
7388;DHT22;3735;50.136;11.062;2023-07-02T14:35:11;26.70;99.90
7388;DHT22;3735;50.136;11.062;2023-07-02T14:37:37;26.90;99.90
7388;DHT22;3735;50.136;11.062;2023-07-02T14:40:03;28.20;99.90
7388;DHT22;3735;50.136;11.062;2023-07-02T14:42:28;29.00;99.90
7388;DHT22;3735;50.136;11.062;2023-07-02T14:44:54;29.10;99.90
7388;DHT22;3735;50.136;11.062;2023-07-02T14:47:20;28.80;99.90
7388;DHT22;3735;50.136;11.062;2023-07-02T14:49:46;28.50;99.90
7388;DHT22;3735;50.136;11.062;2023-07-02T14:52:12;29.00;99.90
7388;DHT22;3735;50.136;11.062;2023-07-02T14:54:38;30.30;99.90
7388;DHT22;3735;50.136;11.062;2023-07-02T14:57:04;30.80;99.90
7388;DHT22;3735;50.136;11.062;2023-07-02T14:59:30;31.10;99.90
7388;DHT22;3735;50.136;11.062;2023-07-02T15:01:55;30.60;99.90
7388;DHT22;3735;50.136;11.062;2023-07-02T15:04:21;29.70;99.90
7388;DHT22;3735;50.136;11.062;2023-07-02T15:06:47;28.50;99.90
7388;DHT22;3735;50.136;11.062;2023-07-02T15:09:12;28.10;99.90
7388;DHT22;3735;50.136;11.062;2023-07-02T15:11:38;28.00;99.90
7388;DHT22;3735;50.136;11.062;2023-07-02T15:14:05;28.40;99.90
7388;DHT22;3735;50.136;11.062;2023-07-02T15:16:30;29.00;99.90
7388;DHT22;3735;50.136;11.062;2023-07-02T15:18:56;29.90;99.90
7388;DHT22;3735;50.136;11.062;2023-07-02T15:21:22;30.30;99.90
7388;DHT22;3735;50.136;11.062;2023-07-02T15:23:49;30.20;99.90
7388;DHT22;3735;50.136;11.062;2023-07-02T15:26:15;29.70;99.90
7388;DHT22;3735;50.136;11.062;2023-07-02T15:28:41;28.60;99.90
7388;DHT22;3735;50.136;11.062;2023-07-02T15:31:09;27.90;99.90
7388;DHT22;3735;50.136;11.062;2023-07-02T15:33:36;27.70;99.90
7388;DHT22;3735;50.136;11.062;2023-07-02T15:36:03;27.60;99.90
7388;DHT22;3735;50.136;11.062;2023-07-02T15:38:30;27.30;99.90
7388;DHT22;3735;50.136;11.062;2023-07-02T15:41:11;26.70;99.90
7388;DHT22;3735;50.136;11.062;2023-07-02T15:43:40;26.10;99.90
7388;DHT22;3735;50.136;11.062;2023-07-02T15:46:08;25.60;99.90
7388;DHT22;3735;50.136;11.062;2023-07-02T15:48:35;25.40;99.90
7388;DHT22;3735;50.136;11.062;2023-07-02T15:51:05;25.20;99.90